sensor_id;sensor_type;location;lat;lon;timestamp;temperature;humidity
17697;DHT22;8967;47.984;7.842;2023-07-31T00:01:28;18.90;92.20
17697;DHT22;8967;47.984;7.842;2023-07-31T00:03:56;18.80;92.20
17697;DHT22;8967;47.984;7.842;2023-07-31T00:06:23;18.80;92.50
17697;DHT22;8967;47.984;7.842;2023-07-31T00:08:50;18.80;92.40
17697;DHT22;8967;47.984;7.842;2023-07-31T00:11:16;18.80;92.60
17697;DHT22;8967;47.984;7.842;2023-07-31T00:13:43;18.80;92.60
17697;DHT22;8967;47.984;7.842;2023-07-31T00:16:10;18.80;92.50
17697;DHT22;8967;47.984;7.842;2023-07-31T00:18:37;18.80;92.60
17697;DHT22;8967;47.984;7.842;2023-07-31T00:21:05;18.80;92.60
17697;DHT22;8967;47.984;7.842;2023-07-31T00:23:32;18.70;92.60
17697;DHT22;8967;47.984;7.842;2023-07-31T00:25:59;18.70;92.80
17697;DHT22;8967;47.984;7.842;2023-07-31T00:28:26;18.70;92.70
17697;DHT22;8967;47.984;7.842;2023-07-31T00:30:57;18.70;92.70
17697;DHT22;8967;47.984;7.842;2023-07-31T00:33:25;18.60;92.80
17697;DHT22;8967;47.984;7.842;2023-07-31T00:35:52;18.60;92.80
17697;DHT22;8967;47.984;7.842;2023-07-31T00:38:20;18.60;93.10
17697;DHT22;8967;47.984;7.842;2023-07-31T00:40:47;18.50;93.20
17697;DHT22;8967;47.984;7.842;2023-07-31T00:43:16;18.60;93.30
17697;DHT22;8967;47.984;7.842;2023-07-31T00:45:44;18.50;93.10
17697;DHT22;8967;47.984;7.842;2023-07-31T00:48:11;18.50;93.30
17697;DHT22;8967;47.984;7.842;2023-07-31T00:50:39;18.50;93.30
17697;DHT22;8967;47.984;7.842;2023-07-31T00:53:08;18.50;93.80
17697;DHT22;8967;47.984;7.842;2023-07-31T00:55:36;18.50;93.40
17697;DHT22;8967;47.984;7.842;2023-07-31T00:58:03;18.40;93.30
17697;DHT22;8967;47.984;7.842;2023-07-31T01:00:30;18.40;94.00
17697;DHT22;8967;47.984;7.842;2023-07-31T01:03:00;18.40;93.70
17697;DHT22;8967;47.984;7.842;2023-07-31T01:05:36;18.30;93.70
17697;DHT22;8967;47.984;7.842;2023-07-31T01:08:12;18.30;93.90
17697;DHT22;8967;47.984;7.842;2023-07-31T01:10:48;18.30;93.90
17697;DHT22;8967;47.984;7.842;2023-07-31T01:13:18;18.30;94.00
17697;DHT22;8967;47.984;7.842;2023-07-31T01:15:45;18.30;94.10
17697;DHT22;8967;47.984;7.842;2023-07-31T01:18:12;18.30;94.00
17697;DHT22;8967;47.984;7.842;2023-07-31T01:20:42;18.30;94.10
17697;DHT22;8967;47.984;7.842;2023-07-31T01:23:45;18.20;94.10
17697;DHT22;8967;47.984;7.842;2023-07-31T01:26:19;18.30;94.30
17697;DHT22;8967;47.984;7.842;2023-07-31T01:28:55;18.20;94.00
17697;DHT22;8967;47.984;7.842;2023-07-31T01:31:25;18.20;94.20
17697;DHT22;8967;47.984;7.842;2023-07-31T01:33:54;18.10;94.20
17697;DHT22;8967;47.984;7.842;2023-07-31T01:36:23;18.10;94.40
17697;DHT22;8967;47.984;7.842;2023-07-31T01:38:50;18.10;94.50
17697;DHT22;8967;47.984;7.842;2023-07-31T01:41:18;18.10;94.50
17697;DHT22;8967;47.984;7.842;2023-07-31T01:43:45;18.10;94.50
17697;DHT22;8967;47.984;7.842;2023-07-31T01:46:13;18.10;94.60
17697;DHT22;8967;47.984;7.842;2023-07-31T01:48:40;18.10;94.80
17697;DHT22;8967;47.984;7.842;2023-07-31T01:51:06;18.10;94.70
17697;DHT22;8967;47.984;7.842;2023-07-31T01:53:33;18.10;94.70
17697;DHT22;8967;47.984;7.842;2023-07-31T01:56:00;18.10;94.60
17697;DHT22;8967;47.984;7.842;2023-07-31T01:58:31;18.10;94.70
17697;DHT22;8967;47.984;7.842;2023-07-31T02:01:00;18.00;94.90
17697;DHT22;8967;47.984;7.842;2023-07-31T02:03:27;18.00;94.80
17697;DHT22;8967;47.984;7.842;2023-07-31T02:05:54;18.00;94.90
17697;DHT22;8967;47.984;7.842;2023-07-31T02:08:24;18.00;95.00
17697;DHT22;8967;47.984;7.842;2023-07-31T02:10:51;17.90;95.00
17697;DHT22;8967;47.984;7.842;2023-07-31T02:13:18;17.90;95.20
17697;DHT22;8967;47.984;7.842;2023-07-31T02:15:46;17.90;95.20
17697;DHT22;8967;47.984;7.842;2023-07-31T02:18:13;17.90;95.20
17697;DHT22;8967;47.984;7.842;2023-07-31T02:20:40;17.90;95.20
17697;DHT22;8967;47.984;7.842;2023-07-31T02:23:07;17.90;95.20
17697;DHT22;8967;47.984;7.842;2023-07-31T02:25:34;17.90;95.30
17697;DHT22;8967;47.984;7.842;2023-07-31T02:28:04;17.80;95.20
17697;DHT22;8967;47.984;7.842;2023-07-31T02:30:33;17.80;95.30
17697;DHT22;8967;47.984;7.842;2023-07-31T02:33:02;17.80;95.40
17697;DHT22;8967;47.984;7.842;2023-07-31T02:35:28;17.80;95.30
17697;DHT22;8967;47.984;7.842;2023-07-31T02:37:55;17.70;95.40
17697;DHT22;8967;47.984;7.842;2023-07-31T02:40:24;17.70;95.60
17697;DHT22;8967;47.984;7.842;2023-07-31T02:42:51;17.70;95.70
17697;DHT22;8967;47.984;7.842;2023-07-31T02:45:18;17.60;95.60
17697;DHT22;8967;47.984;7.842;2023-07-31T02:47:46;17.60;95.90
17697;DHT22;8967;47.984;7.842;2023-07-31T02:50:14;17.60;96.00
17697;DHT22;8967;47.984;7.842;2023-07-31T02:52:43;17.60;95.90
17697;DHT22;8967;47.984;7.842;2023-07-31T02:55:12;17.60;95.90
17697;DHT22;8967;47.984;7.842;2023-07-31T02:57:39;17.60;95.80
17697;DHT22;8967;47.984;7.842;2023-07-31T03:00:07;17.60;95.90
17697;DHT22;8967;47.984;7.842;2023-07-31T03:02:35;17.70;96.00
17697;DHT22;8967;47.984;7.842;2023-07-31T03:05:08;17.60;95.70
17697;DHT22;8967;47.984;7.842;2023-07-31T03:07:37;17.60;95.90
17697;DHT22;8967;47.984;7.842;2023-07-31T03:10:04;17.60;95.90
17697;DHT22;8967;47.984;7.842;2023-07-31T03:12:31;17.60;96.20
17697;DHT22;8967;47.984;7.842;2023-07-31T03:14:58;17.60;96.20
17697;DHT22;8967;47.984;7.842;2023-07-31T03:17:27;17.60;96.20
17697;DHT22;8967;47.984;7.842;2023-07-31T03:19:54;17.60;96.00
17697;DHT22;8967;47.984;7.842;2023-07-31T03:22:21;17.60;96.10
17697;DHT22;8967;47.984;7.842;2023-07-31T03:24:52;17.60;96.10
17697;DHT22;8967;47.984;7.842;2023-07-31T03:27:21;17.60;96.20
17697;DHT22;8967;47.984;7.842;2023-07-31T03:29:51;17.60;96.20
17697;DHT22;8967;47.984;7.842;2023-07-31T03:32:18;17.50;95.90
17697;DHT22;8967;47.984;7.842;2023-07-31T03:34:45;17.50;95.80
17697;DHT22;8967;47.984;7.842;2023-07-31T03:37:11;17.40;96.20
17697;DHT22;8967;47.984;7.842;2023-07-31T03:39:38;17.40;96.10
17697;DHT22;8967;47.984;7.842;2023-07-31T03:42:08;17.40;96.10
17697;DHT22;8967;47.984;7.842;2023-07-31T03:44:34;17.40;96.30
17697;DHT22;8967;47.984;7.842;2023-07-31T03:47:04;17.40;96.10
17697;DHT22;8967;47.984;7.842;2023-07-31T03:49:36;17.40;96.00
17697;DHT22;8967;47.984;7.842;2023-07-31T03:52:04;17.30;95.90
17697;DHT22;8967;47.984;7.842;2023-07-31T03:54:31;17.40;96.00
17697;DHT22;8967;47.984;7.842;2023-07-31T03:56:58;17.40;96.00
17697;DHT22;8967;47.984;7.842;2023-07-31T03:59:26;17.40;95.80
17697;DHT22;8967;47.984;7.842;2023-07-31T04:01:55;17.30;95.90
17697;DHT22;8967;47.984;7.842;2023-07-31T04:04:22;17.30;95.80
17697;DHT22;8967;47.984;7.842;2023-07-31T04:06:49;17.30;95.80
17697;DHT22;8967;47.984;7.842;2023-07-31T04:09:15;17.30;95.90
17697;DHT22;8967;47.984;7.842;2023-07-31T04:11:42;17.30;95.70
17697;DHT22;8967;47.984;7.842;2023-07-31T04:14:09;17.30;95.70
17697;DHT22;8967;47.984;7.842;2023-07-31T04:16:40;17.30;95.70
17697;DHT22;8967;47.984;7.842;2023-07-31T04:19:06;17.30;95.50
17697;DHT22;8967;47.984;7.842;2023-07-31T04:21:33;17.30;95.70
17697;DHT22;8967;47.984;7.842;2023-07-31T04:24:00;17.30;95.70
17697;DHT22;8967;47.984;7.842;2023-07-31T04:26:27;17.40;95.50
17697;DHT22;8967;47.984;7.842;2023-07-31T04:28:54;17.30;95.70
17697;DHT22;8967;47.984;7.842;2023-07-31T04:31:21;17.40;95.70
17697;DHT22;8967;47.984;7.842;2023-07-31T04:33:51;17.40;95.60
17697;DHT22;8967;47.984;7.842;2023-07-31T04:36:18;17.40;95.70
17697;DHT22;8967;47.984;7.842;2023-07-31T04:38:45;17.40;95.50
17697;DHT22;8967;47.984;7.842;2023-07-31T04:41:11;17.40;95.50
17697;DHT22;8967;47.984;7.842;2023-07-31T04:43:38;17.40;95.30
17697;DHT22;8967;47.984;7.842;2023-07-31T04:46:06;17.30;95.60
17697;DHT22;8967;47.984;7.842;2023-07-31T04:48:33;17.30;95.70
17697;DHT22;8967;47.984;7.842;2023-07-31T04:51:01;17.40;95.90
17697;DHT22;8967;47.984;7.842;2023-07-31T04:53:28;17.40;95.90
17697;DHT22;8967;47.984;7.842;2023-07-31T04:55:55;17.40;95.80
17697;DHT22;8967;47.984;7.842;2023-07-31T04:58:22;17.50;95.90
17697;DHT22;8967;47.984;7.842;2023-07-31T05:00:49;17.50;95.70
17697;DHT22;8967;47.984;7.842;2023-07-31T05:03:16;17.50;95.80
17697;DHT22;8967;47.984;7.842;2023-07-31T05:05:43;17.50;95.70
17697;DHT22;8967;47.984;7.842;2023-07-31T05:08:13;17.60;95.80
17697;DHT22;8967;47.984;7.842;2023-07-31T05:10:42;17.60;95.80
17697;DHT22;8967;47.984;7.842;2023-07-31T05:13:09;17.60;95.70
17697;DHT22;8967;47.984;7.842;2023-07-31T05:15:36;17.60;95.80
17697;DHT22;8967;47.984;7.842;2023-07-31T05:18:03;17.60;95.60
17697;DHT22;8967;47.984;7.842;2023-07-31T05:20:30;17.60;95.70
17697;DHT22;8967;47.984;7.842;2023-07-31T05:22:57;17.60;95.90
17697;DHT22;8967;47.984;7.842;2023-07-31T05:25:25;17.60;95.90
17697;DHT22;8967;47.984;7.842;2023-07-31T05:27:54;17.70;96.40
17697;DHT22;8967;47.984;7.842;2023-07-31T05:30:21;17.70;95.90
17697;DHT22;8967;47.984;7.842;2023-07-31T05:32:48;17.70;95.90
17697;DHT22;8967;47.984;7.842;2023-07-31T05:35:15;17.70;95.80
17697;DHT22;8967;47.984;7.842;2023-07-31T05:37:41;17.70;95.80
17697;DHT22;8967;47.984;7.842;2023-07-31T05:40:09;17.80;95.60
17697;DHT22;8967;47.984;7.842;2023-07-31T05:42:37;17.80;95.90
17697;DHT22;8967;47.984;7.842;2023-07-31T05:45:07;17.80;95.40
17697;DHT22;8967;47.984;7.842;2023-07-31T05:47:34;17.80;95.50
17697;DHT22;8967;47.984;7.842;2023-07-31T05:50:01;17.90;95.30
17697;DHT22;8967;47.984;7.842;2023-07-31T05:52:27;17.90;95.50
17697;DHT22;8967;47.984;7.842;2023-07-31T05:54:55;17.90;95.20
17697;DHT22;8967;47.984;7.842;2023-07-31T05:57:22;17.90;95.30
17697;DHT22;8967;47.984;7.842;2023-07-31T05:59:50;18.00;95.10
17697;DHT22;8967;47.984;7.842;2023-07-31T06:02:19;18.00;95.00
17697;DHT22;8967;47.984;7.842;2023-07-31T06:04:45;18.00;95.10
17697;DHT22;8967;47.984;7.842;2023-07-31T06:07:12;18.00;95.00
17697;DHT22;8967;47.984;7.842;2023-07-31T06:09:39;18.10;94.90
17697;DHT22;8967;47.984;7.842;2023-07-31T06:12:07;18.10;94.70
17697;DHT22;8967;47.984;7.842;2023-07-31T06:14:34;18.10;94.70
17697;DHT22;8967;47.984;7.842;2023-07-31T06:17:02;18.20;94.70
17697;DHT22;8967;47.984;7.842;2023-07-31T06:19:29;18.30;95.00
17697;DHT22;8967;47.984;7.842;2023-07-31T06:21:56;18.30;94.50
17697;DHT22;8967;47.984;7.842;2023-07-31T06:24:23;18.40;94.50
17697;DHT22;8967;47.984;7.842;2023-07-31T06:26:52;18.40;94.40
17697;DHT22;8967;47.984;7.842;2023-07-31T06:29:19;18.50;94.40
17697;DHT22;8967;47.984;7.842;2023-07-31T06:31:46;18.50;94.50
17697;DHT22;8967;47.984;7.842;2023-07-31T06:34:17;18.50;94.50
17697;DHT22;8967;47.984;7.842;2023-07-31T06:36:43;18.50;94.50
17697;DHT22;8967;47.984;7.842;2023-07-31T06:39:10;18.60;94.50
17697;DHT22;8967;47.984;7.842;2023-07-31T06:41:38;18.60;94.50
17697;DHT22;8967;47.984;7.842;2023-07-31T06:44:09;18.70;94.50
17697;DHT22;8967;47.984;7.842;2023-07-31T06:46:36;18.70;94.40
17697;DHT22;8967;47.984;7.842;2023-07-31T06:49:03;18.70;94.30
17697;DHT22;8967;47.984;7.842;2023-07-31T06:51:31;18.80;94.30
17697;DHT22;8967;47.984;7.842;2023-07-31T06:53:58;18.80;94.00
17697;DHT22;8967;47.984;7.842;2023-07-31T06:56:25;18.80;94.00
17697;DHT22;8967;47.984;7.842;2023-07-31T06:58:55;18.80;94.00
17697;DHT22;8967;47.984;7.842;2023-07-31T07:01:22;18.90;94.10
17697;DHT22;8967;47.984;7.842;2023-07-31T07:03:50;18.90;94.00
17697;DHT22;8967;47.984;7.842;2023-07-31T07:06:17;19.00;93.90
17697;DHT22;8967;47.984;7.842;2023-07-31T07:08:45;19.00;93.60
17697;DHT22;8967;47.984;7.842;2023-07-31T07:11:12;19.00;93.40
17697;DHT22;8967;47.984;7.842;2023-07-31T07:13:39;19.00;93.60
17697;DHT22;8967;47.984;7.842;2023-07-31T07:16:06;19.00;93.20
17697;DHT22;8967;47.984;7.842;2023-07-31T07:18:33;19.10;93.10
17697;DHT22;8967;47.984;7.842;2023-07-31T07:21:00;19.10;93.00
17697;DHT22;8967;47.984;7.842;2023-07-31T07:23:33;19.10;92.90
17697;DHT22;8967;47.984;7.842;2023-07-31T07:26:01;19.10;92.90
17697;DHT22;8967;47.984;7.842;2023-07-31T07:28:28;19.10;92.80
17697;DHT22;8967;47.984;7.842;2023-07-31T07:30:55;19.10;92.90
17697;DHT22;8967;47.984;7.842;2023-07-31T07:33:24;19.20;92.90
17697;DHT22;8967;47.984;7.842;2023-07-31T07:35:51;19.20;92.70
17697;DHT22;8967;47.984;7.842;2023-07-31T07:38:17;19.20;92.90
17697;DHT22;8967;47.984;7.842;2023-07-31T07:40:45;19.20;92.40
17697;DHT22;8967;47.984;7.842;2023-07-31T07:43:17;19.20;92.30
17697;DHT22;8967;47.984;7.842;2023-07-31T07:45:44;19.30;92.20
17697;DHT22;8967;47.984;7.842;2023-07-31T07:48:11;19.30;92.30
17697;DHT22;8967;47.984;7.842;2023-07-31T07:50:38;19.40;92.30
17697;DHT22;8967;47.984;7.842;2023-07-31T07:53:05;19.40;92.40
17697;DHT22;8967;47.984;7.842;2023-07-31T07:55:32;19.50;92.50
17697;DHT22;8967;47.984;7.842;2023-07-31T07:57:59;19.60;92.50
17697;DHT22;8967;47.984;7.842;2023-07-31T08:00:29;19.70;92.40
17697;DHT22;8967;47.984;7.842;2023-07-31T08:02:59;19.70;92.10
17697;DHT22;8967;47.984;7.842;2023-07-31T08:05:26;19.80;92.10
17697;DHT22;8967;47.984;7.842;2023-07-31T08:07:53;19.90;91.90
17697;DHT22;8967;47.984;7.842;2023-07-31T08:10:20;20.00;91.90
17697;DHT22;8967;47.984;7.842;2023-07-31T08:12:46;20.10;92.00
17697;DHT22;8967;47.984;7.842;2023-07-31T08:15:13;20.10;91.70
17697;DHT22;8967;47.984;7.842;2023-07-31T08:17:42;20.20;91.50
17697;DHT22;8967;47.984;7.842;2023-07-31T08:20:10;20.20;91.20
17697;DHT22;8967;47.984;7.842;2023-07-31T08:22:37;20.20;91.20
17697;DHT22;8967;47.984;7.842;2023-07-31T08:25:05;20.30;91.00
17697;DHT22;8967;47.984;7.842;2023-07-31T08:27:34;20.30;91.00
17697;DHT22;8967;47.984;7.842;2023-07-31T08:30:01;20.30;90.90
17697;DHT22;8967;47.984;7.842;2023-07-31T08:32:28;20.30;91.10
17697;DHT22;8967;47.984;7.842;2023-07-31T08:34:56;20.40;91.10
17697;DHT22;8967;47.984;7.842;2023-07-31T08:37:23;20.40;90.80
17697;DHT22;8967;47.984;7.842;2023-07-31T08:39:50;20.40;90.80
17697;DHT22;8967;47.984;7.842;2023-07-31T08:42:17;20.50;90.90
17697;DHT22;8967;47.984;7.842;2023-07-31T08:44:46;20.50;90.90
17697;DHT22;8967;47.984;7.842;2023-07-31T08:47:15;20.60;90.90
17697;DHT22;8967;47.984;7.842;2023-07-31T08:49:43;20.70;90.80
17697;DHT22;8967;47.984;7.842;2023-07-31T08:52:13;20.70;90.40
17697;DHT22;8967;47.984;7.842;2023-07-31T08:54:40;20.80;90.40
17697;DHT22;8967;47.984;7.842;2023-07-31T08:57:07;20.80;90.20
17697;DHT22;8967;47.984;7.842;2023-07-31T08:59:35;20.90;90.00
17697;DHT22;8967;47.984;7.842;2023-07-31T09:02:05;20.90;90.10
17697;DHT22;8967;47.984;7.842;2023-07-31T09:04:33;20.90;89.80
17697;DHT22;8967;47.984;7.842;2023-07-31T09:07:03;21.00;90.00
17697;DHT22;8967;47.984;7.842;2023-07-31T09:09:34;21.00;90.10
17697;DHT22;8967;47.984;7.842;2023-07-31T09:12:01;21.10;90.00
17697;DHT22;8967;47.984;7.842;2023-07-31T09:14:29;21.20;90.00
17697;DHT22;8967;47.984;7.842;2023-07-31T09:16:56;21.20;90.00
17697;DHT22;8967;47.984;7.842;2023-07-31T09:19:28;21.30;89.80
17697;DHT22;8967;47.984;7.842;2023-07-31T09:21:55;21.40;89.10
17697;DHT22;8967;47.984;7.842;2023-07-31T09:24:26;21.50;88.50
17697;DHT22;8967;47.984;7.842;2023-07-31T09:26:55;21.50;87.70
17697;DHT22;8967;47.984;7.842;2023-07-31T09:29:23;21.50;87.00
17697;DHT22;8967;47.984;7.842;2023-07-31T09:31:50;21.50;87.20
17697;DHT22;8967;47.984;7.842;2023-07-31T09:34:17;21.50;87.90
17697;DHT22;8967;47.984;7.842;2023-07-31T09:36:46;21.50;87.00
17697;DHT22;8967;47.984;7.842;2023-07-31T09:39:17;21.60;86.90
17697;DHT22;8967;47.984;7.842;2023-07-31T09:41:47;21.60;85.90
17697;DHT22;8967;47.984;7.842;2023-07-31T09:44:21;21.70;86.30
17697;DHT22;8967;47.984;7.842;2023-07-31T09:46:50;21.70;86.60
17697;DHT22;8967;47.984;7.842;2023-07-31T09:49:19;21.70;86.90
17697;DHT22;8967;47.984;7.842;2023-07-31T09:51:46;21.70;86.10
17697;DHT22;8967;47.984;7.842;2023-07-31T09:54:14;21.70;85.90
17697;DHT22;8967;47.984;7.842;2023-07-31T09:56:43;21.80;85.70
17697;DHT22;8967;47.984;7.842;2023-07-31T09:59:14;21.80;85.50
17697;DHT22;8967;47.984;7.842;2023-07-31T10:01:44;21.80;85.20
17697;DHT22;8967;47.984;7.842;2023-07-31T10:04:12;21.80;85.30
17697;DHT22;8967;47.984;7.842;2023-07-31T10:06:40;21.80;85.70
17697;DHT22;8967;47.984;7.842;2023-07-31T10:09:10;21.90;85.90
17697;DHT22;8967;47.984;7.842;2023-07-31T10:11:43;21.90;85.70
17697;DHT22;8967;47.984;7.842;2023-07-31T10:14:20;21.90;84.90
17697;DHT22;8967;47.984;7.842;2023-07-31T10:16:49;21.90;84.70
17697;DHT22;8967;47.984;7.842;2023-07-31T10:19:17;22.00;84.70
17697;DHT22;8967;47.984;7.842;2023-07-31T10:21:45;22.00;84.10
17697;DHT22;8967;47.984;7.842;2023-07-31T10:24:13;22.10;83.80
17697;DHT22;8967;47.984;7.842;2023-07-31T10:26:41;22.10;83.70
17697;DHT22;8967;47.984;7.842;2023-07-31T10:29:10;22.10;83.50
17697;DHT22;8967;47.984;7.842;2023-07-31T10:31:38;22.10;83.60
17697;DHT22;8967;47.984;7.842;2023-07-31T10:34:06;22.10;84.00
17697;DHT22;8967;47.984;7.842;2023-07-31T10:36:33;22.20;84.50
17697;DHT22;8967;47.984;7.842;2023-07-31T10:39:04;22.20;84.40
17697;DHT22;8967;47.984;7.842;2023-07-31T10:41:31;22.30;84.20
17697;DHT22;8967;47.984;7.842;2023-07-31T10:43:59;22.40;84.30
17697;DHT22;8967;47.984;7.842;2023-07-31T10:46:28;22.40;83.30
17697;DHT22;8967;47.984;7.842;2023-07-31T10:48:58;22.50;83.40
17697;DHT22;8967;47.984;7.842;2023-07-31T10:51:32;22.50;83.70
17697;DHT22;8967;47.984;7.842;2023-07-31T10:54:11;22.50;83.80
17697;DHT22;8967;47.984;7.842;2023-07-31T10:56:44;22.50;82.70
17697;DHT22;8967;47.984;7.842;2023-07-31T10:59:12;22.60;82.00
17697;DHT22;8967;47.984;7.842;2023-07-31T11:01:51;22.70;81.80
17697;DHT22;8967;47.984;7.842;2023-07-31T11:04:22;22.70;82.20
17697;DHT22;8967;47.984;7.842;2023-07-31T11:06:58;22.80;81.80
17697;DHT22;8967;47.984;7.842;2023-07-31T11:09:28;22.80;81.20
17697;DHT22;8967;47.984;7.842;2023-07-31T11:11:57;22.80;80.70
17697;DHT22;8967;47.984;7.842;2023-07-31T11:14:24;22.90;80.20
17697;DHT22;8967;47.984;7.842;2023-07-31T11:16:51;22.90;80.20
17697;DHT22;8967;47.984;7.842;2023-07-31T11:19:21;22.90;80.30
17697;DHT22;8967;47.984;7.842;2023-07-31T11:21:49;22.90;79.90
17697;DHT22;8967;47.984;7.842;2023-07-31T11:24:20;22.90;80.00
17697;DHT22;8967;47.984;7.842;2023-07-31T11:26:51;22.90;80.20
17697;DHT22;8967;47.984;7.842;2023-07-31T11:29:18;22.90;80.90
17697;DHT22;8967;47.984;7.842;2023-07-31T11:31:48;23.00;81.60
17697;DHT22;8967;47.984;7.842;2023-07-31T11:34:15;23.00;81.40
17697;DHT22;8967;47.984;7.842;2023-07-31T11:36:53;22.90;81.20
17697;DHT22;8967;47.984;7.842;2023-07-31T11:39:21;23.00;81.20
17697;DHT22;8967;47.984;7.842;2023-07-31T11:41:48;23.00;80.70
17697;DHT22;8967;47.984;7.842;2023-07-31T11:44:15;23.00;80.70
17697;DHT22;8967;47.984;7.842;2023-07-31T11:46:42;23.00;81.10
17697;DHT22;8967;47.984;7.842;2023-07-31T11:49:09;23.00;80.90
17697;DHT22;8967;47.984;7.842;2023-07-31T11:51:39;23.10;81.00
17697;DHT22;8967;47.984;7.842;2023-07-31T11:54:06;23.10;81.60
17697;DHT22;8967;47.984;7.842;2023-07-31T11:56:34;23.10;80.80
17697;DHT22;8967;47.984;7.842;2023-07-31T11:59:02;23.10;81.10
17697;DHT22;8967;47.984;7.842;2023-07-31T12:01:31;23.10;81.40
17697;DHT22;8967;47.984;7.842;2023-07-31T12:03:58;23.10;81.60
17697;DHT22;8967;47.984;7.842;2023-07-31T12:06:32;23.20;81.90
17697;DHT22;8967;47.984;7.842;2023-07-31T12:09:01;23.20;81.70
17697;DHT22;8967;47.984;7.842;2023-07-31T12:11:28;23.20;82.00
17697;DHT22;8967;47.984;7.842;2023-07-31T12:13:57;23.20;81.50
17697;DHT22;8967;47.984;7.842;2023-07-31T12:16:26;23.20;81.20
17697;DHT22;8967;47.984;7.842;2023-07-31T12:18:53;23.20;81.00
17697;DHT22;8967;47.984;7.842;2023-07-31T12:21:23;23.10;80.90
17697;DHT22;8967;47.984;7.842;2023-07-31T12:23:52;23.20;81.20
17697;DHT22;8967;47.984;7.842;2023-07-31T12:26:20;23.20;80.60
17697;DHT22;8967;47.984;7.842;2023-07-31T12:28:49;23.20;80.20
17697;DHT22;8967;47.984;7.842;2023-07-31T12:31:19;23.20;79.30
17697;DHT22;8967;47.984;7.842;2023-07-31T12:33:50;23.20;79.40
17697;DHT22;8967;47.984;7.842;2023-07-31T12:36:18;23.20;79.70
17697;DHT22;8967;47.984;7.842;2023-07-31T12:38:46;23.20;79.70
17697;DHT22;8967;47.984;7.842;2023-07-31T12:41:13;23.20;79.30
17697;DHT22;8967;47.984;7.842;2023-07-31T12:43:44;23.20;79.00
17697;DHT22;8967;47.984;7.842;2023-07-31T12:46:11;23.30;79.00
17697;DHT22;8967;47.984;7.842;2023-07-31T12:48:40;23.30;79.30
17697;DHT22;8967;47.984;7.842;2023-07-31T12:51:09;23.30;79.80
17697;DHT22;8967;47.984;7.842;2023-07-31T12:53:36;23.30;80.20
17697;DHT22;8967;47.984;7.842;2023-07-31T12:56:05;23.40;80.20
17697;DHT22;8967;47.984;7.842;2023-07-31T12:58:32;23.40;80.00
17697;DHT22;8967;47.984;7.842;2023-07-31T13:00:59;23.40;80.00
17697;DHT22;8967;47.984;7.842;2023-07-31T13:03:29;23.50;79.50
17697;DHT22;8967;47.984;7.842;2023-07-31T13:05:58;23.50;79.40
17697;DHT22;8967;47.984;7.842;2023-07-31T13:08:24;23.50;78.70
17697;DHT22;8967;47.984;7.842;2023-07-31T13:10:57;23.50;78.50
17697;DHT22;8967;47.984;7.842;2023-07-31T13:13:24;23.50;78.80
17697;DHT22;8967;47.984;7.842;2023-07-31T13:15:53;23.60;78.70
17697;DHT22;8967;47.984;7.842;2023-07-31T13:18:20;23.60;77.50
17697;DHT22;8967;47.984;7.842;2023-07-31T13:20:47;23.60;77.50
17697;DHT22;8967;47.984;7.842;2023-07-31T13:23:15;23.60;77.80
17697;DHT22;8967;47.984;7.842;2023-07-31T13:25:42;23.60;77.70
17697;DHT22;8967;47.984;7.842;2023-07-31T13:28:09;23.60;77.50
17697;DHT22;8967;47.984;7.842;2023-07-31T13:30:36;23.60;77.40
17697;DHT22;8967;47.984;7.842;2023-07-31T13:33:03;23.60;77.40
17697;DHT22;8967;47.984;7.842;2023-07-31T13:35:30;23.70;77.20
17697;DHT22;8967;47.984;7.842;2023-07-31T13:37:59;23.70;77.30
17697;DHT22;8967;47.984;7.842;2023-07-31T13:40:30;23.70;77.00
17697;DHT22;8967;47.984;7.842;2023-07-31T13:42:57;23.70;76.90
17697;DHT22;8967;47.984;7.842;2023-07-31T13:45:26;23.70;77.20
17697;DHT22;8967;47.984;7.842;2023-07-31T13:47:53;23.70;77.40
17697;DHT22;8967;47.984;7.842;2023-07-31T13:50:20;23.70;77.60
17697;DHT22;8967;47.984;7.842;2023-07-31T13:52:50;23.70;77.80
17697;DHT22;8967;47.984;7.842;2023-07-31T13:55:17;23.80;77.80
17697;DHT22;8967;47.984;7.842;2023-07-31T13:57:45;23.80;77.80
17697;DHT22;8967;47.984;7.842;2023-07-31T14:00:15;23.80;77.50
17697;DHT22;8967;47.984;7.842;2023-07-31T14:02:42;23.80;77.40
17697;DHT22;8967;47.984;7.842;2023-07-31T14:05:09;23.90;78.30
17697;DHT22;8967;47.984;7.842;2023-07-31T14:07:36;23.90;77.60
17697;DHT22;8967;47.984;7.842;2023-07-31T14:10:03;23.90;77.80
17697;DHT22;8967;47.984;7.842;2023-07-31T14:12:30;23.90;77.80
17697;DHT22;8967;47.984;7.842;2023-07-31T14:14:58;23.90;77.80
17697;DHT22;8967;47.984;7.842;2023-07-31T14:17:25;24.00;77.90
17697;DHT22;8967;47.984;7.842;2023-07-31T14:19:52;24.00;78.00
17697;DHT22;8967;47.984;7.842;2023-07-31T14:22:27;24.00;77.90
17697;DHT22;8967;47.984;7.842;2023-07-31T14:24:57;24.00;78.10
17697;DHT22;8967;47.984;7.842;2023-07-31T14:27:26;24.00;77.60
17697;DHT22;8967;47.984;7.842;2023-07-31T14:29:53;24.00;77.40
17697;DHT22;8967;47.984;7.842;2023-07-31T14:32:21;24.00;77.50
17697;DHT22;8967;47.984;7.842;2023-07-31T14:34:48;24.00;77.20
17697;DHT22;8967;47.984;7.842;2023-07-31T14:37:15;24.00;77.50
17697;DHT22;8967;47.984;7.842;2023-07-31T14:39:45;24.00;76.80
17697;DHT22;8967;47.984;7.842;2023-07-31T14:42:11;24.10;76.90
17697;DHT22;8967;47.984;7.842;2023-07-31T14:44:38;24.10;77.00
17697;DHT22;8967;47.984;7.842;2023-07-31T14:47:05;24.10;77.00
17697;DHT22;8967;47.984;7.842;2023-07-31T14:49:36;24.10;76.40
17697;DHT22;8967;47.984;7.842;2023-07-31T14:52:04;24.10;76.60
17697;DHT22;8967;47.984;7.842;2023-07-31T14:54:30;24.10;76.60
17697;DHT22;8967;47.984;7.842;2023-07-31T14:57:00;24.10;76.40
17697;DHT22;8967;47.984;7.842;2023-07-31T14:59:27;24.10;76.40
17697;DHT22;8967;47.984;7.842;2023-07-31T15:01:54;24.10;76.20
17697;DHT22;8967;47.984;7.842;2023-07-31T15:04:21;24.10;75.70
17697;DHT22;8967;47.984;7.842;2023-07-31T15:06:51;24.10;75.90
17697;DHT22;8967;47.984;7.842;2023-07-31T15:09:18;24.10;75.30
17697;DHT22;8967;47.984;7.842;2023-07-31T15:11:47;24.20;74.80
17697;DHT22;8967;47.984;7.842;2023-07-31T15:14:14;24.20;74.00
17697;DHT22;8967;47.984;7.842;2023-07-31T15:16:50;24.20;74.70
17697;DHT22;8967;47.984;7.842;2023-07-31T15:19:17;24.20;74.60
17697;DHT22;8967;47.984;7.842;2023-07-31T15:21:44;24.20;74.70
17697;DHT22;8967;47.984;7.842;2023-07-31T15:24:12;24.10;74.70
17697;DHT22;8967;47.984;7.842;2023-07-31T15:26:39;24.10;75.30
17697;DHT22;8967;47.984;7.842;2023-07-31T15:29:08;24.10;74.60
17697;DHT22;8967;47.984;7.842;2023-07-31T15:31:39;24.10;75.00
17697;DHT22;8967;47.984;7.842;2023-07-31T15:34:06;24.10;75.00
17697;DHT22;8967;47.984;7.842;2023-07-31T15:36:33;24.10;75.20
17697;DHT22;8967;47.984;7.842;2023-07-31T15:38:59;24.00;75.10
17697;DHT22;8967;47.984;7.842;2023-07-31T15:41:28;24.00;75.50
17697;DHT22;8967;47.984;7.842;2023-07-31T15:43:55;24.00;75.30
17697;DHT22;8967;47.984;7.842;2023-07-31T15:46:22;24.00;75.10
17697;DHT22;8967;47.984;7.842;2023-07-31T15:48:49;24.00;74.50
17697;DHT22;8967;47.984;7.842;2023-07-31T15:51:22;24.00;74.70